createdAt,value
2022-11-24T00:00:54.143Z,3.85
2022-11-24T00:10:54.132Z,3.99
2022-11-24T00:15:54.148Z,4.19
2022-11-24T00:30:54.152Z,4.75
2022-11-24T00:55:54.113Z,5.44
2022-11-24T01:05:54.129Z,5.58
2022-11-24T01:10:54.121Z,5.63
2022-11-24T01:15:54.148Z,5.69
2022-11-24T01:20:54.109Z,5.79
2022-11-24T01:25:54.099Z,5.84
2022-11-24T01:30:54.165Z,5.84
2022-11-24T01:35:54.103Z,5.85
2022-11-24T01:40:54.089Z,5.83
2022-11-24T01:45:54.112Z,5.77
2022-11-24T01:50:54.092Z,5.67
2022-11-24T01:55:54.069Z,5.58
2022-11-24T02:00:54.086Z,5.63
2022-11-24T02:05:54.063Z,5.7
2022-11-24T02:10:54.064Z,5.74
2022-11-24T02:15:54.116Z,5.78
2022-11-24T02:20:54.073Z,5.79
2022-11-24T02:25:54.050Z,5.81
2022-11-24T02:30:54.113Z,5.84
2022-11-24T02:35:54.035Z,5.87
2022-11-24T02:40:54.044Z,5.86
2022-11-24T02:45:54.092Z,5.86
2022-11-24T02:50:54.032Z,5.87
2022-11-24T02:55:54.024Z,5.87
2022-11-24T03:00:54.051Z,5.81
2022-11-24T03:05:54.011Z,5.58
2022-11-24T03:10:54.028Z,5.41
2022-11-24T03:15:54.067Z,5.31
2022-11-24T03:20:54.023Z,5.29
2022-11-24T03:25:54.003Z,5.22
2022-11-24T03:30:54.057Z,5.12
2022-11-24T03:35:54.000Z,4.89
2022-11-24T03:40:54.012Z,4.71
2022-11-24T03:45:54.045Z,4.67
2022-11-24T03:50:53.994Z,4.79
2022-11-24T03:55:53.999Z,4.87
2022-11-24T04:00:53.995Z,4.88
2022-11-24T04:05:53.990Z,4.79
2022-11-24T04:10:53.981Z,4.85
2022-11-24T04:15:54.062Z,4.85
2022-11-24T04:20:53.960Z,5
2022-11-24T04:25:53.961Z,5.12
2022-11-24T04:30:54.008Z,5.26
2022-11-24T04:35:53.986Z,5.32
2022-11-24T04:40:53.968Z,5.38
2022-11-24T04:45:53.964Z,5.38
2022-11-24T04:50:54.033Z,5.38
2022-11-24T04:55:54.069Z,5.38
2022-11-24T05:00:53.945Z,5.35
2022-11-24T05:05:53.953Z,5.31
2022-11-24T05:10:53.938Z,5.31
2022-11-24T05:15:54.041Z,5.31
2022-11-24T05:20:53.929Z,5.32
2022-11-24T05:25:53.944Z,5.31
2022-11-24T05:30:53.980Z,5.31
2022-11-24T05:35:53.916Z,5.31
2022-11-24T05:40:53.913Z,5.31
2022-11-24T05:45:53.912Z,5.31
2022-11-24T05:50:53.905Z,5.31
2022-11-24T05:55:54.045Z,5.31
2022-11-24T06:00:53.893Z,5.31
2022-11-24T06:05:53.895Z,5.31
2022-11-24T06:10:53.906Z,5.38
2022-11-24T06:15:53.887Z,5.47
2022-11-24T06:21:09.463Z,5.55
2022-11-24T06:25:53.920Z,5.58
2022-11-24T06:30:53.886Z,5.59
2022-11-24T06:35:53.867Z,5.63
2022-11-24T06:40:53.872Z,5.68
2022-11-24T06:45:53.951Z,5.73
2022-11-24T06:50:53.855Z,5.75
2022-11-24T06:55:53.880Z,5.78
2022-11-24T07:00:53.957Z,5.79
2022-11-24T07:05:53.866Z,5.84
2022-11-24T07:10:53.872Z,5.89
2022-11-24T07:15:53.842Z,5.96
2022-11-24T07:20:53.836Z,6.03
2022-11-24T07:25:53.866Z,6.05
2022-11-24T07:30:53.848Z,6.11
2022-11-24T07:35:53.834Z,6.2
2022-11-24T07:40:53.832Z,6.29
2022-11-24T07:45:53.880Z,6.29
2022-11-24T07:50:55.898Z,6.19
2022-11-24T07:55:53.825Z,6.22
2022-11-24T08:00:53.810Z,6.27
2022-11-24T08:06:16.411Z,6.33
2022-11-24T08:10:53.821Z,6.42
2022-11-24T08:15:53.799Z,6.5
2022-11-24T08:20:53.804Z,6.59
2022-11-24T08:25:56.830Z,6.68
2022-11-24T08:30:53.800Z,6.76
2022-11-24T08:35:53.785Z,6.85
2022-11-24T08:40:53.798Z,6.94
2022-11-24T08:45:53.874Z,7
2022-11-24T08:50:53.778Z,7.23
2022-11-24T08:55:53.782Z,7.52
2022-11-24T09:00:53.778Z,7.71
2022-11-24T09:05:53.782Z,7.68
2022-11-24T09:10:53.771Z,7.68
2022-11-24T09:15:53.749Z,7.68
2022-11-24T09:20:53.758Z,7.55
2022-11-24T09:25:53.755Z,7.41
2022-11-24T09:30:53.798Z,7.35
2022-11-24T09:35:53.744Z,7.47
2022-11-24T09:40:54.735Z,7.47
2022-11-24T09:46:09.087Z,7.75
2022-11-24T09:50:53.741Z,8.13
2022-11-24T09:55:53.738Z,8.16
2022-11-24T10:00:53.729Z,8.13
2022-11-24T10:05:53.732Z,8.23
2022-11-24T10:10:53.707Z,8.53
2022-11-24T10:15:53.800Z,8.74
2022-11-24T10:20:53.711Z,8.85
2022-11-24T10:25:53.703Z,8.85
2022-11-24T10:30:53.751Z,9.28
2022-11-24T10:35:53.680Z,9.56
2022-11-24T10:40:57.968Z,9.67
2022-11-24T10:45:53.752Z,9.63
2022-11-24T10:50:53.675Z,9.79
2022-11-24T10:55:53.670Z,9.77
2022-11-24T11:00:53.657Z,9.56
2022-11-24T11:05:53.677Z,9.42
2022-11-24T11:10:53.661Z,9.31
2022-11-24T11:15:53.766Z,9.11
2022-11-24T11:20:53.648Z,8.81
2022-11-24T11:25:53.636Z,8.59
2022-11-24T11:35:53.637Z,7.74
2022-11-24T11:40:53.633Z,7.61
2022-11-24T11:45:53.760Z,7.75
2022-11-24T11:51:21.544Z,7.92
2022-11-24T11:55:53.628Z,7.84
2022-11-24T12:00:53.613Z,7.91
2022-11-24T12:05:53.623Z,7.69
2022-11-24T12:10:53.596Z,7.61
2022-11-24T12:15:53.635Z,7.61
2022-11-24T12:20:53.607Z,7.7
2022-11-24T12:25:53.604Z,7.85
2022-11-24T12:30:53.648Z,7.8
2022-11-24T12:35:53.576Z,7.8
2022-11-24T12:45:53.580Z,7.71
2022-11-24T12:50:53.588Z,7.68
2022-11-24T12:55:53.584Z,7.65
2022-11-24T13:00:53.566Z,7.49
2022-11-24T13:05:53.576Z,7.53
2022-11-24T13:10:56.118Z,7.71
2022-11-24T13:20:53.563Z,7.73
2022-11-24T13:30:53.607Z,7.74
2022-11-24T13:35:53.536Z,7.69
2022-11-24T13:41:13.258Z,7.81
2022-11-24T13:45:53.524Z,7.86
2022-11-24T13:50:53.522Z,7.78
2022-11-24T13:55:53.521Z,7.85
2022-11-24T14:00:57.014Z,7.91
2022-11-24T14:05:53.547Z,7.92
2022-11-24T14:15:53.540Z,8.03
2022-11-24T14:30:53.537Z,7.69
2022-11-24T14:35:53.483Z,7.75
2022-11-24T14:50:53.461Z,7.63
2022-11-24T14:55:53.467Z,6.29
2022-11-24T15:05:53.461Z,5.76
2022-11-24T15:15:56.390Z,5.61
2022-11-24T15:30:53.422Z,5.58
2022-11-24T15:35:53.527Z,5.58
2022-11-24T15:40:53.423Z,5.58
2022-11-24T15:45:53.415Z,5.57
2022-11-24T15:50:53.435Z,5.3
2022-11-24T15:55:53.415Z,5.03
2022-11-24T16:00:53.653Z,4.81
2022-11-24T16:05:53.425Z,4.63
2022-11-24T16:10:53.406Z,4.48
2022-11-24T16:15:53.452Z,4.29
2022-11-24T16:20:53.398Z,4.2
2022-11-24T16:25:53.404Z,4.2
2022-11-24T16:30:53.398Z,4.19
2022-11-24T16:35:53.389Z,4.2
2022-11-24T16:40:53.447Z,4.19
2022-11-24T16:45:53.459Z,4.19
2022-11-24T16:50:53.379Z,4.2
2022-11-24T16:55:53.372Z,4.5
2022-11-24T17:00:53.409Z,4.67
2022-11-24T17:05:53.373Z,4.8
2022-11-24T17:10:53.368Z,4.82
2022-11-24T17:15:54.426Z,4.93
2022-11-24T17:20:53.380Z,5.02
2022-11-24T17:25:53.349Z,5.04
2022-11-24T17:30:53.379Z,4.88
2022-11-24T17:35:53.367Z,4.89
2022-11-24T17:40:53.345Z,4.89
2022-11-24T17:45:53.411Z,4.9
2022-11-24T17:50:53.345Z,4.98
2022-11-24T17:55:53.333Z,5
2022-11-24T18:00:53.369Z,4.9
2022-11-24T18:05:53.330Z,4.83
2022-11-24T18:10:53.343Z,4.67
2022-11-24T18:15:53.348Z,4.54
2022-11-24T18:20:53.327Z,4.67
2022-11-24T18:25:53.312Z,4.8
2022-11-24T18:30:53.311Z,4.76
2022-11-24T18:35:53.311Z,4.69
2022-11-24T18:40:53.315Z,4.66
2022-11-24T18:45:53.390Z,4.59
2022-11-24T18:50:53.296Z,4.35
2022-11-24T18:55:53.310Z,4.19
2022-11-24T19:00:53.317Z,4.07
2022-11-24T19:05:53.303Z,3.87
2022-11-24T19:10:53.277Z,3.76
2022-11-24T19:15:53.295Z,3.63
2022-11-24T19:20:53.280Z,3.61
2022-11-24T19:25:53.267Z,3.54
2022-11-24T19:30:53.396Z,3.46
2022-11-24T19:35:53.275Z,3.4
2022-11-24T19:40:53.277Z,3.38
2022-11-24T19:45:53.333Z,3.34
2022-11-24T19:50:53.267Z,3.28
2022-11-24T19:55:53.249Z,3.23
2022-11-24T20:00:53.327Z,3.17
2022-11-24T20:05:53.249Z,3.08
2022-11-24T20:10:53.276Z,2.95
2022-11-24T20:15:53.263Z,2.79
2022-11-24T20:20:53.263Z,2.63
2022-11-24T20:25:53.250Z,2.54
2022-11-24T20:30:53.246Z,2.43
2022-11-24T20:35:53.240Z,2.36
2022-11-24T20:40:53.229Z,2.32
2022-11-24T20:45:53.280Z,2.17
2022-11-24T20:50:53.235Z,2.08
2022-11-24T20:55:53.231Z,1.94
2022-11-24T21:00:53.276Z,1.97
2022-11-24T21:05:53.222Z,1.94
2022-11-24T21:10:53.238Z,1.79
2022-11-24T21:15:53.223Z,1.64
2022-11-24T21:20:53.216Z,1.4
2022-11-24T21:25:53.216Z,1.3
2022-11-24T21:30:53.214Z,1.15
2022-11-24T21:35:53.215Z,1.08
2022-11-24T21:40:53.221Z,1
2022-11-24T21:45:53.283Z,0.95
2022-11-24T21:50:53.216Z,0.93
2022-11-24T21:55:53.204Z,0.87
2022-11-24T22:00:53.247Z,0.81
2022-11-24T22:05:53.206Z,0.82
2022-11-24T22:10:53.242Z,0.75
2022-11-24T22:15:53.231Z,0.67
2022-11-24T22:20:53.207Z,0.64
2022-11-24T22:25:53.186Z,0.63
2022-11-24T22:30:53.205Z,0.64
2022-11-24T22:35:53.197Z,0.58
2022-11-24T22:40:53.182Z,0.56
2022-11-24T22:45:53.217Z,0.55
2022-11-24T22:50:53.193Z,0.56
2022-11-24T22:55:53.189Z,0.58
2022-11-24T23:12:00.613Z,0.72
2022-11-24T23:15:53.363Z,0.79
2022-11-24T23:20:53.174Z,0.83
2022-11-24T23:25:53.175Z,0.82
2022-11-24T23:35:53.187Z,0.82
2022-11-24T23:40:53.171Z,0.76
2022-11-24T23:45:53.190Z,0.69
2022-11-24T23:50:53.194Z,0.71
2022-11-24T23:55:53.174Z,0.68
